Repülésmeteorológia

METAR


Utolsó módosítás időpontja: 2022-08-10 22:50:00
434
SAHU41 HASM 102300
METAR LHSM 102245Z AUTO 32006KT CAVOK 18/10 Q1021

TAF


Utolsó módosítás időpontja: 2022-08-10 20:25:00
429
FCHU99 LHSM 102000
TAF LHSM 102000Z NIL